Time;durP1;ratioP1;P1;durP2;ratioP2;P2;SDS_P1;SDS_P2;PMS_P1;PMS_P2;Temp;Humidity;BMP_temperature;BMP_pressure;BME280_temperature;BME280_humidity;BME280_pressure;Samples;Min_cycle;Max_cycle;Signal;HPM_P1;HPM_P2
2022/04/20 00:00:12;;;;;;;3.22;2.30;;;;;;;-139.48;100.00;61774.03;5021328;28;20048;-69
2022/04/20 00:02:56;;;;;;;4.25;2.30;;;;;;;-139.48;100.00;61774.03;5021263;28;20053;-69
2022/04/20 00:05:40;;;;;;;4.85;2.28;;;;;;;11.13;46.30;100141.34;5021162;28;20053;-69
2022/04/20 00:08:24;;;;;;;4.63;2.83;;;;;;;10.81;47.22;100142.81;5021108;28;20047;-69
2022/04/20 00:11:09;;;;;;;2.78;2.30;;;;;;;10.70;47.27;100143.88;5020909;28;20095;-69
2022/04/20 00:13:53;;;;;;;6.20;2.67;;;;;;;10.69;47.63;100139.53;5020709;28;20175;-69
2022/04/20 00:16:37;;;;;;;3.97;2.25;;;;;;;10.66;47.65;100139.78;5006904;28;20409;-69
2022/04/20 00:19:20;;;;;;;4.88;2.45;;;;;;;10.63;47.71;100140.09;5035954;28;20043;-69
2022/04/20 00:22:05;;;;;;;5.38;2.42;;;;;;;10.60;48.00;100150.22;5020973;28;20076;-69
2022/04/20 00:24:49;;;;;;;6.82;2.42;;;;;;;10.50;48.46;100146.75;5020448;28;20068;-69
2022/04/20 00:27:35;;;;;;;6.55;2.50;;;;;;;10.46;47.99;100140.88;5007219;28;20077;-69
2022/04/20 00:30:19;;;;;;;4.90;2.42;;;;;;;10.54;47.83;100134.81;5021020;28;20103;-69
2022/04/20 00:33:03;;;;;;;3.60;2.53;;;;;;;10.47;47.62;100137.22;5006655;28;20048;-69
2022/04/20 00:35:48;;;;;;;4.90;2.42;;;;;;;10.41;48.47;100129.81;5020266;28;20103;-69
2022/04/20 00:38:32;;;;;;;3.80;2.50;;;;;;;10.42;47.60;100136.81;5020474;28;20055;-69
2022/04/20 00:41:16;;;;;;;6.25;2.60;;;;;;;10.41;48.33;100136.97;5035300;28;20080;-69
2022/04/20 00:44:01;;;;;;;6.00;2.20;;;;;;;10.36;48.59;100134.75;5020341;28;20040;-69
2022/04/20 00:46:49;;;;;;;3.63;2.50;;;;;;;10.27;49.31;100140.97;5006655;28;20056;-69
2022/04/20 00:49:35;;;;;;;3.90;2.22;;;;;;;10.19;49.69;100139.16;5020142;28;20111;-69
2022/04/20 00:52:19;;;;;;;4.43;2.63;;;;;;;10.14;48.46;100138.75;5020404;28;20194;-69
2022/04/20 00:55:04;;;;;;;2.58;2.00;;;;;;;10.17;48.68;100131.31;5020208;28;20044;-69
2022/04/20 00:57:48;;;;;;;2.90;2.33;;;;;;;10.08;49.23;100136.69;5034273;28;20544;-69
2022/04/20 01:00:31;;;;;;;3.58;2.30;;;;;;;10.07;49.72;100140.28;5019914;28;20047;-69
2022/04/20 01:03:15;;;;;;;2.92;2.28;;;;;;;10.14;48.32;100141.41;5006462;28;20036;-69
2022/04/20 01:05:59;;;;;;;3.15;2.05;;;;;;;10.02;50.13;100146.09;5019701;28;20540;-69
2022/04/20 01:08:43;;;;;;;2.78;2.42;;;;;;;9.95;49.74;100134.28;5019746;28;20067;-69
2022/04/20 01:11:27;;;;;;;3.78;2.38;;;;;;;10.01;49.70;100127.53;5035280;28;20132;-69
2022/04/20 01:14:11;;;;;;;9.80;2.50;;;;;;;9.99;50.22;100132.19;5019886;28;20048;-69
2022/04/20 01:16:55;;;;;;;3.28;2.53;;;;;;;9.96;49.40;100137.78;5019939;28;20413;-69
2022/04/20 01:19:40;;;;;;;2.85;2.17;;;;;;;9.89;50.05;100131.34;5019793;28;20060;-69
2022/04/20 01:22:23;;;;;;;2.47;2.20;;;;;;;9.84;50.43;100128.28;5034466;28;20094;-69
2022/04/20 01:25:08;;;;;;;4.70;2.63;;;;;;;9.79;50.43;100143.84;5019405;28;20114;-69
2022/04/20 01:27:52;;;;;;;4.45;2.40;;;;;;;9.72;51.65;100132.06;5019693;28;20052;-69
2022/04/20 01:30:36;;;;;;;8.32;2.50;;;;;;;9.72;50.80;100140.06;5019637;28;20052;-69
2022/04/20 01:33:20;;;;;;;7.30;2.13;;;;;;;9.67;50.76;100134.34;5019464;28;20059;-69
2022/04/20 01:36:04;;;;;;;4.07;2.33;;;;;;;9.58;51.25;100137.84;5043256;22;20141;-69
2022/04/20 01:38:48;;;;;;;4.65;2.40;;;;;;;9.61;51.70;100142.88;5019284;28;20056;-69
2022/04/20 01:41:32;;;;;;;3.05;2.33;;;;;;;9.50;52.35;100148.34;5034280;28;20421;-69
2022/04/20 01:44:16;;;;;;;3.38;2.30;;;;;;;9.41;52.56;100141.19;5019328;28;20044;-69
2022/04/20 01:47:00;;;;;;;3.17;2.20;;;;;;;9.40;100.00;100134.19;5014628;28;20052;-69
2022/04/20 01:49:44;;;;;;;2.88;2.30;;;;;;;9.48;52.88;100131.69;4999415;28;20053;-69
2022/04/20 01:52:28;;;;;;;3.97;2.70;;;;;;;9.41;53.06;100130.56;5014518;28;20180;-69
2022/04/20 01:55:12;;;;;;;3.10;2.42;;;;;;;9.36;53.61;100132.81;5014338;28;20168;-69
2022/04/20 01:57:55;;;;;;;3.35;2.20;;;;;;;9.37;54.37;100131.84;5014473;28;20053;-69
2022/04/20 02:00:39;;;;;;;5.13;2.70;;;;;;;9.34;54.32;100130.28;4999464;28;20057;-69
2022/04/20 02:03:23;;;;;;;5.93;2.40;;;;;;;9.23;55.19;100137.53;4999390;28;20052;-69
2022/04/20 02:06:10;;;;;;;5.03;2.28;;;;;;;9.19;54.97;100126.34;4999098;28;20060;-69
2022/04/20 02:08:55;;;;;;;3.78;2.60;;;;;;;9.06;55.82;100127.59;4999548;28;20131;-69
2022/04/20 02:11:39;;;;;;;3.67;2.65;;;;;;;9.08;56.19;100130.97;5014173;28;20061;-69
2022/04/20 02:14:22;;;;;;;5.85;2.55;;;;;;;8.99;56.97;100135.25;5014103;28;20049;-69
2022/04/20 02:17:06;;;;;;;3.63;2.30;;;;;;;8.92;57.34;100135.97;5013797;28;20468;-69
2022/04/20 02:19:50;;;;;;;2.78;2.08;;;;;;;8.93;58.53;100137.63;5014325;28;20099;-69
2022/04/20 02:22:34;;;;;;;4.55;2.50;;;;;;;8.92;58.80;100127.97;4999156;28;20414;-69
2022/04/20 02:25:18;;;;;;;4.00;2.75;;;;;;;8.93;59.03;100129.66;5013646;28;20041;-69
2022/04/20 02:28:02;;;;;;;4.28;2.80;;;;;;;8.88;60.43;100138.03;5013682;28;20164;-69
2022/04/20 02:30:46;;;;;;;4.80;2.70;;;;;;;8.93;59.54;100140.28;4999308;28;20106;-69
2022/04/20 02:33:29;;;;;;;4.82;3.10;;;;;;;9.02;59.94;100135.00;4998843;28;20044;-69
2022/04/20 02:36:13;;;;;;;7.78;2.88;;;;;;;8.94;60.70;100136.66;4998521;28;20127;-69
2022/04/20 02:38:57;;;;;;;3.90;2.67;;;;;;;8.93;61.68;100141.16;4998938;28;20563;-69
2022/04/20 02:41:42;;;;;;;4.85;3.05;;;;;;;8.96;61.59;100135.53;5013778;28;20092;-69
2022/04/20 02:44:26;;;;;;;3.60;3.10;;;;;;;8.94;62.27;100139.31;4998455;28;20541;-69
2022/04/20 02:47:10;;;;;;;3.10;2.80;;;;;;;9.02;61.56;100132.34;5013732;28;20052;-69
2022/04/20 02:49:54;;;;;;;4.13;2.95;;;;;;;9.09;62.36;100135.28;4998553;28;20052;-69
2022/04/20 02:52:38;;;;;;;4.53;3.40;;;;;;;9.12;61.91;100135.88;5013685;28;20068;-69
2022/04/20 02:55:22;;;;;;;5.43;2.70;;;;;;;9.11;62.36;100139.50;5013590;28;20120;-69
2022/04/20 02:58:07;;;;;;;6.53;3.53;;;;;;;9.11;62.79;100133.34;4998704;28;20514;-69
2022/04/20 03:00:51;;;;;;;4.47;3.05;;;;;;;9.09;62.97;100135.28;5013319;28;20052;-69
2022/04/20 03:03:35;;;;;;;6.32;3.40;;;;;;;9.13;62.21;100139.34;4998356;28;20053;-69
2022/04/20 03:06:19;;;;;;;5.28;3.28;;;;;;;9.17;62.88;100133.63;4998323;28;20132;-69
2022/04/20 03:09:03;;;;;;;4.70;3.50;;;;;;;9.17;62.26;100132.78;5013280;28;20045;-69
2022/04/20 03:11:47;;;;;;;3.85;3.38;;;;;;;9.23;62.36;100134.88;4998787;28;20044;-69
2022/04/20 03:14:31;;;;;;;7.72;3.15;;;;;;;9.21;61.85;100144.81;4998174;28;20048;-69
2022/04/20 03:17:15;;;;;;;4.15;3.38;;;;;;;9.19;62.93;100136.97;5013472;28;20060;-69
2022/04/20 03:19:59;;;;;;;4.53;3.25;;;;;;;9.18;62.69;100139.78;5015251;28;20539;-69
2022/04/20 03:22:43;;;;;;;4.57;3.30;;;;;;;9.15;64.17;100140.91;5002395;28;20111;-69
2022/04/20 03:25:27;;;;;;;4.97;3.30;;;;;;;9.09;62.86;100149.41;5002021;28;20080;-69
2022/04/20 03:28:13;;;;;;;10.80;3.75;;;;;;;9.05;63.68;100147.19;5002340;28;20080;-69
2022/04/20 03:30:57;;;;;;;4.30;3.33;;;;;;;9.07;63.86;100163.84;5017018;28;20052;-69
2022/04/20 03:33:41;;;;;;;6.97;3.60;;;;;;;9.03;64.75;100159.78;5002190;28;20044;-69
2022/04/20 03:36:25;;;;;;;5.43;3.92;;;;;;;9.02;64.10;100166.06;5001941;28;20052;-69
2022/04/20 03:39:09;;;;;;;5.90;3.30;;;;;;;8.95;66.19;100165.78;5016709;28;20057;-69
2022/04/20 03:41:53;;;;;;;4.80;3.67;;;;;;;8.84;67.08;100165.03;5002053;28;20053;-69
2022/04/20 03:44:39;;;;;;;4.90;3.63;;;;;;;8.77;67.49;100171.88;5001901;28;20096;-69
2022/04/20 03:47:24;;;;;;;6.22;3.85;;;;;;;8.70;68.99;100171.59;5001937;28;20080;-69
2022/04/20 03:50:08;;;;;;;6.63;3.35;;;;;;;8.67;69.45;100176.31;5001886;28;20052;-69
2022/04/20 03:52:52;;;;;;;7.05;3.45;;;;;;;8.66;69.16;100166.69;5001849;28;20544;-69
2022/04/20 03:55:36;;;;;;;5.40;3.72;;;;;;;8.66;70.00;100169.34;5001391;28;20037;-69
2022/04/20 03:58:19;;;;;;;6.82;3.50;;;;;;;8.58;70.82;100171.81;4987958;28;20044;-69
2022/04/20 04:01:03;;;;;;;6.38;3.30;;;;;;;8.50;71.71;100171.63;5001687;28;20080;-69
2022/04/20 04:03:47;;;;;;;4.65;3.72;;;;;;;8.49;72.11;100175.28;5001490;28;20099;-69
2022/04/20 04:06:31;;;;;;;5.68;3.42;;;;;;;8.34;73.96;100173.97;5001522;28;20145;-69
2022/04/20 04:09:15;;;;;;;4.63;3.10;;;;;;;8.25;75.81;100169.44;5001746;28;20048;-69
2022/04/20 04:11:59;;;;;;;6.97;3.40;;;;;;;8.06;78.96;100175.41;5001724;28;20104;-69
2022/04/20 04:14:44;;;;;;;5.65;3.78;;;;;;;7.97;80.30;100170.06;5015875;28;20160;-69
2022/04/20 04:17:28;;;;;;;6.82;3.45;;;;;;;7.90;79.58;100172.41;5001505;28;20048;-69
2022/04/20 04:20:12;;;;;;;6.93;3.88;;;;;;;7.82;82.27;100176.69;5001085;28;20096;-69
2022/04/20 04:22:56;;;;;;;5.30;3.35;;;;;;;7.76;82.21;100171.88;5001882;28;20048;-69
2022/04/20 04:25:40;;;;;;;4.95;3.50;;;;;;;7.68;83.30;100179.63;5001114;28;20053;-70
2022/04/20 04:28:24;;;;;;;4.50;3.67;;;;;;;7.65;84.69;100172.75;5016101;28;20393;-69
2022/04/20 04:31:08;;;;;;;;;;;;;;;7.73;82.20;100182.75;5000186;28;20071;-70
2022/04/20 04:33:52;;;;;;;6.77;3.87;;;;;;;7.67;82.95;100180.59;5015896;28;19962;-69
2022/04/20 04:36:36;;;;;;;5.93;3.85;;;;;;;7.54;83.82;100179.94;5000572;28;20421;-69
2022/04/20 04:39:21;;;;;;;8.25;3.35;;;;;;;7.60;82.11;100179.44;5000706;28;20099;-69
2022/04/20 04:42:05;;;;;;;4.03;3.15;;;;;;;7.67;82.75;100177.94;5001162;28;20076;-69
2022/04/20 04:44:49;;;;;;;6.25;3.67;;;;;;;7.65;84.42;100182.56;4987002;28;20045;-70
2022/04/20 04:50:36;;;;;;;5.32;3.35;;;;;;;7.68;84.07;100179.63;5003171;28;20048;-69
2022/04/20 04:53:20;;;;;;;5.93;3.35;;;;;;;7.63;83.84;100176.53;5015474;28;20505;-69
2022/04/20 04:56:04;;;;;;;5.75;3.70;;;;;;;7.61;85.17;100179.31;5000326;28;20517;-69
2022/04/20 04:58:48;;;;;;;7.15;3.85;;;;;;;7.59;85.88;100191.00;4986877;28;20535;-69
2022/04/20 05:01:32;;;;;;;6.70;3.55;;;;;;;7.56;86.36;100185.97;5000318;28;20057;-69
2022/04/20 05:04:16;;;;;;;5.18;3.53;;;;;;;7.57;86.16;100198.25;5000467;28;20056;-69
2022/04/20 05:07:00;;;;;;;5.80;4.07;;;;;;;7.53;86.36;100194.19;5000452;28;20100;-69
2022/04/20 05:09:44;;;;;;;6.22;3.97;;;;;;;7.57;85.90;100198.25;5015004;28;20536;-69
2022/04/20 05:12:28;;;;;;;7.40;3.42;;;;;;;7.61;87.11;100189.06;5000205;28;20142;-69
2022/04/20 05:15:12;;;;;;;5.88;3.22;;;;;;;7.62;88.02;100206.69;4999910;28;20045;-69
2022/04/20 05:17:56;;;;;;;6.05;3.42;;;;;;;7.66;87.85;100203.66;5015123;28;20052;-70
2022/04/20 05:20:41;;;;;;;5.13;3.67;;;;;;;7.71;88.16;100206.75;4986468;28;20056;-69
2022/04/20 05:23:25;;;;;;;8.20;4.05;;;;;;;7.72;89.07;100202.31;4986372;28;20080;-69
2022/04/20 05:26:09;;;;;;;8.90;3.92;;;;;;;7.76;88.60;100204.53;5000077;28;20104;-69
2022/04/20 05:28:53;;;;;;;4.75;3.50;;;;;;;7.76;88.00;100209.03;5014955;28;20053;-69
2022/04/20 05:31:37;;;;;;;3.20;2.90;;;;;;;7.79;88.37;100211.41;4999853;28;20088;-69
2022/04/20 05:34:23;;;;;;;7.65;3.60;;;;;;;7.76;87.56;100217.81;4999876;28;20444;-69
2022/04/20 05:43:13;;;;;;;7.07;4.30;;;;;;;7.76;88.83;100222.31;5014001;28;20541;-69
2022/04/20 05:45:57;;;;;;;6.10;3.95;;;;;;;7.84;89.55;100220.69;4999369;28;20052;-69
2022/04/20 05:48:41;;;;;;;5.20;3.50;;;;;;;7.93;86.60;100213.78;4999373;28;20057;-69
2022/04/20 05:51:25;;;;;;;10.65;3.50;;;;;;;8.08;83.45;100205.38;4999379;28;20053;-69
2022/04/20 05:54:09;;;;;;;5.50;4.00;;;;;;;8.13;81.16;100215.59;4999484;28;20048;-69
2022/04/20 05:56:53;;;;;;;6.75;3.38;;;;;;;8.30;80.67;100225.63;5014399;28;20092;-69
2022/04/20 05:59:37;;;;;;;6.80;4.13;;;;;;;8.43;81.69;100223.59;4999716;28;20059;-69
2022/04/20 06:02:21;;;;;;;6.25;4.38;;;;;;;8.47;78.45;100222.38;4999526;28;20057;-69
2022/04/20 06:05:05;;;;;;;5.15;3.90;;;;;;;8.53;77.28;100217.38;4999212;28;20052;-70
2022/04/20 06:07:49;;;;;;;9.38;4.10;;;;;;;8.59;77.27;100221.31;5014234;28;20513;-69
2022/04/20 06:10:34;;;;;;;7.13;3.65;;;;;;;8.67;77.75;100224.16;4985597;28;20055;-69
2022/04/20 06:13:18;;;;;;;5.55;3.65;;;;;;;8.78;74.07;100227.53;4999257;28;20413;-69
2022/04/20 06:16:06;;;;;;;10.02;3.55;;;;;;;8.72;74.69;100228.09;5013745;28;20056;-69
2022/04/20 06:18:51;;;;;;;6.43;3.88;;;;;;;8.77;75.38;100225.03;4999553;28;20069;-69
2022/04/20 06:21:34;;;;;;;5.80;4.05;;;;;;;8.78;75.41;100221.41;4999186;28;20091;-69
2022/04/20 06:24:20;;;;;;;4.95;3.63;;;;;;;8.74;73.95;100223.50;5014018;28;20127;-69
2022/04/20 06:27:05;;;;;;;6.38;4.15;;;;;;;8.78;74.61;100221.41;4999052;28;20051;-69
2022/04/20 06:29:49;;;;;;;5.93;3.83;;;;;;;8.88;74.49;100214.31;4985083;28;20053;-69
2022/04/20 06:32:33;;;;;;;5.78;4.18;;;;;;;8.89;74.00;100213.34;5013879;28;20052;-69
2022/04/20 06:35:17;;;;;;;5.28;3.78;;;;;;;9.07;74.53;100214.38;5013318;28;20477;-69
2022/04/20 06:38:01;;;;;;;6.40;4.30;;;;;;;9.16;72.67;100217.03;4985282;28;20061;-69
2022/04/20 06:40:45;;;;;;;4.68;3.88;;;;;;;9.30;70.82;100218.47;5013521;28;20060;-69
2022/04/20 06:43:29;;;;;;;5.60;3.83;;;;;;;9.26;70.57;100223.22;4984972;28;20095;-69
2022/04/20 06:46:13;;;;;;;10.65;4.28;;;;;;;9.31;71.08;100217.50;5013389;28;20049;-69
2022/04/20 06:48:57;;;;;;;12.00;4.03;;;;;;;9.40;70.36;100220.16;4998601;28;20100;-69
2022/04/20 07:01:07;;;;;;;7.15;4.10;;;;;;;9.77;69.68;100215.84;5005381;28;20052;-69
2022/04/20 07:03:51;;;;;;;9.90;4.80;;;;;;;9.91;68.75;100217.25;5017824;28;20164;-69
2022/04/20 07:06:35;;;;;;;7.90;4.57;;;;;;;9.97;66.59;100214.03;5017496;28;20057;-69
2022/04/20 07:09:19;;;;;;;6.07;3.92;;;;;;;9.99;65.64;100214.72;4988831;28;20100;-69
2022/04/20 07:12:03;;;;;;;4.95;3.75;;;;;;;10.12;65.33;100212.63;5017233;28;20086;-69
2022/04/20 07:14:46;;;;;;;5.15;3.90;;;;;;;10.30;66.03;100217.94;5002469;28;20131;-69
2022/04/20 07:17:30;;;;;;;5.53;4.32;;;;;;;10.33;62.83;100201.66;5002619;28;20053;-68
2022/04/20 07:20:17;;;;;;;5.35;3.60;;;;;;;10.43;62.54;100205.13;5017105;28;20053;-69
2022/04/20 07:23:02;;;;;;;5.95;4.20;;;;;;;10.44;61.84;100204.13;5017515;28;20124;-69
2022/04/20 07:25:46;;;;;;;4.35;3.67;;;;;;;10.52;62.81;100206.06;5002242;28;20064;-69
2022/04/20 07:28:31;;;;;;;9.38;4.10;;;;;;;10.60;61.17;100206.19;5016909;28;20088;-69
2022/04/20 07:31:15;;;;;;;5.80;3.78;;;;;;;10.63;58.58;100204.09;4988583;28;20476;-69
2022/04/20 07:33:59;;;;;;;6.05;3.95;;;;;;;10.75;58.91;100202.91;5016988;28;20497;-69
2022/04/20 07:36:43;;;;;;;4.97;3.58;;;;;;;10.87;60.14;100200.91;5002924;28;20180;-69
2022/04/20 07:39:27;;;;;;;7.93;3.92;;;;;;;11.02;60.24;100202.94;5002355;28;20057;-69
2022/04/20 07:42:11;;;;;;;5.57;3.50;;;;;;;11.08;60.24;100207.66;5016922;28;20068;-69
2022/04/20 07:44:56;;;;;;;14.10;3.47;;;;;;;11.16;59.07;100210.41;5001906;28;20123;-69
2022/04/20 07:47:40;;;;;;;3.20;2.90;;;;;;;11.28;56.37;100217.22;5016479;28;20056;-69
2022/04/20 07:50:25;;;;;;;5.57;3.60;;;;;;;11.31;55.75;100214.28;5002105;28;20525;-69
2022/04/20 07:53:08;;;;;;;7.38;3.47;;;;;;;11.32;56.83;100210.63;5001776;28;20052;-69
2022/04/20 07:55:52;;;;;;;5.85;3.38;;;;;;;11.48;54.35;100212.63;4988006;28;20137;-69
2022/04/20 07:58:36;;;;;;;3.95;3.33;;;;;;;11.47;55.23;100211.75;5001739;28;20076;-69
2022/04/20 08:01:20;;;;;;;8.80;3.75;;;;;;;11.56;56.12;100224.22;5016498;28;20056;-69
2022/04/20 08:04:05;;;;;;;4.32;3.30;;;;;;;11.65;54.43;100220.66;4988097;28;20049;-69
2022/04/20 08:06:48;;;;;;;5.72;3.17;;;;;;;11.73;54.52;100212.75;5015808;28;20132;-69
2022/04/20 08:09:32;;;;;;;4.32;3.25;;;;;;;11.84;51.94;100215.16;5016474;28;20061;-69
2022/04/20 08:12:16;;;;;;;8.43;3.40;;;;;;;11.84;51.06;100222.34;5001781;28;20509;-69
2022/04/20 08:15:00;;;;;;;6.45;3.28;;;;;;;11.81;50.32;100215.50;5015876;28;20621;-69
2022/04/20 08:17:44;;;;;;;5.57;3.08;;;;;;;11.80;49.27;100213.78;5016274;28;20509;-69
2022/04/20 08:20:28;;;;;;;5.68;3.20;;;;;;;11.73;49.90;100218.06;5016044;28;20133;-69
2022/04/20 08:23:12;;;;;;;4.03;2.90;;;;;;;11.84;49.09;100217.84;5016210;28;20052;-69
2022/04/20 08:25:56;;;;;;;10.40;3.30;;;;;;;11.85;48.79;100208.84;5015761;28;20065;-69
2022/04/20 08:28:39;;;;;;;5.95;3.50;;;;;;;11.86;48.54;100217.69;5015925;28;20120;-69
2022/04/20 08:31:24;;;;;;;6.25;3.15;;;;;;;11.90;48.71;100208.38;5001097;28;20406;-69
2022/04/20 08:34:08;;;;;;;3.50;2.97;;;;;;;12.02;47.89;100218.69;5001020;28;20048;-69
2022/04/20 08:36:52;;;;;;;5.00;3.00;;;;;;;12.12;47.84;100207.88;5015929;28;20180;-69
2022/04/20 08:39:38;;;;;;;11.25;3.95;;;;;;;12.17;46.68;100210.94;5000739;28;20053;-69
2022/04/20 08:42:24;;;;;;;5.53;2.75;;;;;;;12.29;46.81;100207.84;5015718;28;20141;-69
2022/04/20 08:45:09;;;;;;;6.30;2.90;;;;;;;12.24;46.63;100207.47;5015693;28;20104;-69
2022/04/20 08:47:56;;;;;;;6.00;2.80;;;;;;;12.27;46.70;100211.69;5000897;28;20084;-69
2022/04/20 08:50:40;;;;;;;4.93;3.33;;;;;;;12.39;46.43;100200.56;5000638;28;20051;-69
2022/04/20 08:53:24;;;;;;;3.72;2.75;;;;;;;12.44;47.31;100213.44;5000653;28;20135;-69
2022/04/20 08:59:11;;;;;;;4.63;3.33;;;;;;;12.49;44.73;100213.84;5003245;28;20048;-69
2022/04/20 09:01:58;;;;;;;5.78;2.85;;;;;;;12.49;46.24;100212.00;5000312;28;20057;-69
2022/04/20 09:04:43;;;;;;;4.57;3.25;;;;;;;12.62;47.04;100207.03;5000178;28;20049;-69
2022/04/20 09:07:27;;;;;;;4.25;3.20;;;;;;;12.81;47.97;100209.50;5000207;28;20053;-69
2022/04/20 09:10:11;;;;;;;6.10;3.00;;;;;;;12.94;44.87;100210.75;5015044;28;20410;-69
2022/04/20 09:13:11;;;;;;;11.00;3.22;;;;;;;12.82;43.77;100218.38;5000383;28;20056;-69
2022/04/20 09:16:07;;;;;;;5.63;3.38;;;;;;;12.92;43.14;100210.06;4999966;28;20065;-69
2022/04/20 09:18:51;;;;;;;5.63;3.05;;;;;;;12.98;43.49;100208.59;4999362;28;20045;-69
2022/04/20 09:21:35;;;;;;;3.50;2.88;;;;;;;13.06;43.38;100208.66;4986527;28;20456;-69
2022/04/20 09:24:19;;;;;;;;;;;;;;;13.26;42.86;100204.72;5015173;28;20041;-69
2022/04/20 09:27:03;;;;;;;4.83;2.87;;;;;;;13.45;43.40;100204.44;5014957;28;19921;-69
2022/04/20 09:29:54;;;;;;;4.63;3.10;;;;;;;13.65;42.95;100197.78;4986571;28;20095;-69
2022/04/20 09:32:48;;;;;;;6.22;3.45;;;;;;;13.70;42.67;100200.78;4986430;28;20087;-69
2022/04/20 09:35:48;;;;;;;;;;;;;;;13.79;40.91;100199.78;5014794;28;20410;-69
2022/04/20 09:38:35;;;;;;;5.93;3.17;;;;;;;14.02;40.91;100192.75;5014772;28;19970;-68
2022/04/20 09:41:19;;;;;;;5.13;3.17;;;;;;;13.91;41.98;100206.50;5000140;28;20069;-69
2022/04/20 09:44:08;;;;;;;6.15;3.33;;;;;;;14.12;41.54;100202.31;4999496;28;20107;-69
2022/04/20 09:50:03;;;;;;;4.13;2.25;;;;;;;14.69;40.82;100195.88;5002377;28;20053;-69
2022/04/20 09:52:47;;;;;;;7.70;3.10;;;;;;;15.66;39.22;100194.44;4986546;28;20107;-69
2022/04/20 09:55:33;;;;;;;5.35;3.50;;;;;;;16.51;37.48;100189.53;4999090;28;20474;-69
2022/04/20 09:58:19;;;;;;;3.92;3.25;;;;;;;17.59;36.67;100189.53;4999322;28;20058;-69
2022/04/20 10:01:06;;;;;;;3.80;3.03;;;;;;;19.16;33.94;100178.97;5014146;28;20504;-68
2022/04/20 10:03:54;;;;;;;5.85;3.20;;;;;;;19.36;34.22;100174.50;5014190;28;20049;-69
2022/04/20 10:06:43;;;;;;;7.78;3.35;;;;;;;20.58;31.58;100174.88;4985750;28;20137;-69
2022/04/20 10:09:27;;;;;;;4.25;2.88;;;;;;;21.73;29.38;100164.72;5000002;28;20654;-69
2022/04/20 10:12:14;;;;;;;3.47;2.78;;;;;;;23.31;27.41;100180.22;4999331;28;20517;-70
2022/04/20 10:18:05;;;;;;;6.05;3.75;;;;;;;23.53;26.02;100167.78;5013868;28;20077;-69
2022/04/20 10:20:52;;;;;;;;;;;;;;;24.30;24.56;100167.72;5014499;28;20064;-69
2022/04/20 10:23:48;;;;;;;7.65;3.00;;;;;;;23.44;25.76;100163.72;5012876;28;19960;-69
2022/04/20 10:26:34;;;;;;;5.60;3.40;;;;;;;22.91;26.13;100165.38;4999475;28;20037;-69
2022/04/20 10:29:26;;;;;;;7.05;4.35;;;;;;;23.62;26.52;100152.81;4999086;28;20044;-69
2022/04/20 10:32:22;;;;;;;4.68;3.22;;;;;;;24.33;25.53;100143.56;4985280;28;20092;-69
2022/04/20 10:35:05;;;;;;;7.65;3.33;;;;;;;24.22;24.49;100143.53;5013455;28;20049;-69
2022/04/20 10:38:10;;;;;;;6.68;4.18;;;;;;;25.17;25.25;100134.84;4998940;28;20049;-69
2022/04/20 10:41:02;;;;;;;;;;;;;;;24.37;24.79;100133.84;4985452;28;20070;-69
2022/04/20 10:44:03;;;;;;;5.65;3.97;;;;;;;25.51;23.34;100118.38;5013828;28;19920;-69
2022/04/20 10:47:04;;;;;;;7.10;3.80;;;;;;;24.33;24.91;100115.47;4998527;28;20048;-69
2022/04/20 10:49:50;;;;;;;6.35;3.95;;;;;;;26.28;22.87;100119.50;5013381;28;20045;-69
2022/04/20 10:52:38;;;;;;;8.25;4.05;;;;;;;25.86;22.85;100112.75;4998903;28;20049;-70
2022/04/20 10:55:35;;;;;;;4.00;3.60;;;;;;;26.52;21.97;100118.25;4998597;28;20129;-69
2022/04/20 10:58:21;;;;;;;7.22;3.72;;;;;;;26.96;22.69;100100.84;5012415;28;20045;-69
2022/04/20 11:01:11;;;;;;;7.57;3.95;;;;;;;26.11;22.31;100103.09;5013899;28;20188;-69
2022/04/20 11:03:59;;;;;;;4.40;3.50;;;;;;;26.12;21.26;100087.56;4985145;28;20547;-69
2022/04/20 11:06:58;;;;;;;4.68;3.63;;;;;;;25.84;22.40;100106.69;5013436;28;20556;-69
2022/04/20 11:09:42;;;;;;;5.18;3.72;;;;;;;26.17;20.78;100102.13;5013588;28;20072;-70
2022/04/20 11:18:45;;;;;;;5.05;3.40;;;;;;;27.59;19.90;100086.28;5013223;28;20084;-70
2022/04/20 11:21:29;;;;;;;3.60;3.03;;;;;;;28.54;18.54;100084.38;5000488;28;20045;-69
2022/04/20 11:24:25;;;;;;;6.25;3.25;;;;;;;27.22;20.12;100101.75;4998907;28;20052;-70
2022/04/20 11:27:10;;;;;;;5.18;3.22;;;;;;;26.50;20.43;100096.66;4998213;28;20120;-69
2022/04/20 11:29:55;;;;;;;4.70;3.75;;;;;;;26.61;21.10;100090.25;4998444;28;20571;-70
2022/04/20 11:32:39;;;;;;;4.00;3.70;;;;;;;27.53;19.50;100081.03;4998491;28;20064;-70
2022/04/20 11:35:23;;;;;;;3.50;3.10;;;;;;;28.60;19.35;100069.63;4997872;28;20037;-70
2022/04/20 11:38:10;;;;;;;7.05;3.25;;;;;;;28.59;18.84;100073.47;5013276;28;20057;-70
2022/04/20 11:40:55;;;;;;;4.47;3.10;;;;;;;29.00;19.38;100071.75;4999722;28;20100;-69
2022/04/20 11:43:39;;;;;;;7.00;3.05;;;;;;;28.74;19.51;100078.19;5002013;28;20410;-70
2022/04/20 11:46:24;;;;;;;3.15;2.85;;;;;;;28.82;18.45;100075.78;5001741;28;20053;-70
2022/04/20 11:49:09;;;;;;;4.15;3.22;;;;;;;28.57;18.85;100058.34;5001666;28;20061;-70
2022/04/20 11:51:57;;;;;;;7.80;3.15;;;;;;;28.73;19.04;100066.38;5001870;28;20556;-70
2022/04/20 11:54:47;;;;;;;3.67;3.08;;;;;;;29.45;17.54;100059.00;5016260;28;20133;-70
2022/04/20 11:57:31;;;;;;;3.65;3.20;;;;;;;28.08;19.65;100068.69;5002619;28;20084;-70
2022/04/20 12:00:20;;;;;;;6.40;3.17;;;;;;;27.13;19.81;100070.44;5001568;28;20536;-70
2022/04/20 12:03:04;;;;;;;6.00;2.92;;;;;;;28.74;18.86;100061.75;5016562;28;20072;-69
2022/04/20 12:05:59;;;;;;;3.45;2.90;;;;;;;29.36;17.71;100060.63;5001323;28;20061;-69
2022/04/20 12:08:44;;;;;;;4.07;2.60;;;;;;;29.50;18.15;100060.97;5001381;28;20099;-70
2022/04/20 12:11:32;;;;;;;4.03;3.05;;;;;;;30.19;17.56;100044.53;5001536;28;20049;-70
2022/04/20 12:14:16;;;;;;;3.88;3.10;;;;;;;29.71;17.79;100041.50;5001404;28;20048;-69
2022/04/20 12:17:09;;;;;;;7.28;2.88;;;;;;;27.37;19.80;100060.88;5001331;28;20081;-69
2022/04/20 12:19:55;;;;;;;5.18;3.30;;;;;;;27.98;19.11;100049.41;5001075;28;20048;-70
2022/04/20 12:22:39;;;;;;;3.50;3.00;;;;;;;27.37;19.05;100052.66;5001431;28;20045;-69
2022/04/20 12:25:23;;;;;;;4.63;3.08;;;;;;;29.52;17.75;100040.38;4987374;28;20121;-69
2022/04/20 12:31:12;;;;;;;8.18;3.30;;;;;;;29.50;18.20;100026.09;5016016;28;20253;-70
2022/04/20 12:34:04;;;;;;;5.03;3.05;;;;;;;28.49;19.28;100032.25;5001242;28;20069;-70
2022/04/20 12:36:53;;;;;;;3.47;2.95;;;;;;;28.51;18.48;100035.56;5015512;28;20049;-70
2022/04/20 12:39:45;;;;;;;4.40;3.05;;;;;;;27.52;19.30;100033.63;5015639;28;20052;-69
2022/04/20 12:42:29;;;;;;;4.95;3.10;;;;;;;28.31;18.92;100029.06;5001265;28;20056;-70
2022/04/20 12:45:32;;;;;;;6.38;3.10;;;;;;;28.13;18.31;100022.13;5000709;28;20115;-69
2022/04/20 12:48:16;;;;;;;9.07;3.20;;;;;;;28.48;18.93;100016.91;5000929;28;20057;-69
2022/04/20 12:51:00;;;;;;;8.90;3.63;;;;;;;29.15;18.47;100012.25;5015518;28;20052;-70
2022/04/20 12:53:44;;;;;;;4.05;3.05;;;;;;;27.22;19.11;100030.56;4985640;28;20513;-69
2022/04/20 13:02:34;;;;;;;4.27;3.87;;;;;;;27.07;19.68;100019.44;5003413;28;20520;-70
2022/04/20 13:05:18;;;;;;;3.67;3.33;;;;;;;27.36;19.58;100009.09;5000164;28;20865;-70
2022/04/20 13:08:03;;;;;;;6.07;3.38;;;;;;;27.05;19.52;100013.41;5015100;28;20512;-70
2022/04/20 13:10:49;;;;;;;5.38;3.58;;;;;;;27.00;19.87;100018.00;5000473;28;20080;-69
2022/04/20 13:13:33;;;;;;;4.72;3.05;;;;;;;25.42;20.70;100018.03;5000617;28;20073;-69
2022/04/20 13:16:17;;;;;;;5.20;3.60;;;;;;;25.35;20.10;100009.16;4986283;28;20065;-69
2022/04/20 13:19:00;;;;;;;3.58;3.28;;;;;;;26.21;20.60;100001.31;4999978;28;20057;-69
2022/04/20 13:21:45;;;;;;;4.03;3.45;;;;;;;26.07;20.05;99997.28;5015028;28;20049;-69
2022/04/20 13:30:36;;;;;;;10.57;3.20;;;;;;;24.80;22.53;100005.34;5014663;28;20045;-69
2022/04/20 13:33:21;;;;;;;4.05;3.28;;;;;;;24.69;21.33;100000.78;4999984;28;20060;-69
2022/04/20 13:36:06;;;;;;;5.95;3.40;;;;;;;24.69;22.44;99996.13;5015647;28;20512;-69
2022/04/20 13:38:50;;;;;;;3.95;3.35;;;;;;;25.22;20.76;100004.03;5014806;28;20137;-69
2022/04/20 13:41:34;;;;;;;3.40;3.10;;;;;;;24.83;22.40;100000.22;5014481;28;20052;-69